createdAt,value
2023-04-03T00:01:48.973Z,69.61
2023-04-03T00:04:13.014Z,69.61
2023-04-03T00:06:37.004Z,69.34
2023-04-03T00:09:01.404Z,69.23
2023-04-03T00:11:25.275Z,70.09
2023-04-03T00:13:50.552Z,70.07
2023-04-03T00:16:14.486Z,69.47
2023-04-03T00:18:38.463Z,69.21
2023-04-03T00:21:02.356Z,68.82
2023-04-03T00:23:26.210Z,69.40
2023-04-03T00:25:49.879Z,70.31
2023-04-03T00:28:13.690Z,70.48
2023-04-03T00:30:39.207Z,70.79
2023-04-03T00:33:03.288Z,71.38
2023-04-03T00:35:27.509Z,70.05
2023-04-03T00:37:53.425Z,70.94
2023-04-03T00:40:18.300Z,70.15
2023-04-03T00:42:45.356Z,71.42
2023-04-03T00:45:41.567Z,70.87
2023-04-03T00:48:11.111Z,70.54
2023-04-03T00:50:39.803Z,71.43
2023-04-03T00:53:04.018Z,70.26
2023-04-03T00:55:28.193Z,70.85
2023-04-03T00:57:52.293Z,70.80
2023-04-03T01:00:19.646Z,70.91
2023-04-03T01:02:43.405Z,70.93
2023-04-03T01:05:11.220Z,71.25
2023-04-03T01:07:38.017Z,71.27
2023-04-03T01:10:05.895Z,70.40
2023-04-03T01:12:33.069Z,71.31
2023-04-03T01:14:59.955Z,71.07
2023-04-03T01:17:34.288Z,70.97
2023-04-03T01:20:52.108Z,70.39
2023-04-03T01:23:32.847Z,71.28
2023-04-03T01:25:58.934Z,70.71
2023-04-03T01:28:26.820Z,72.26
2023-04-03T01:30:55.808Z,71.65
2023-04-03T01:33:21.595Z,71.42
2023-04-03T01:35:45.697Z,71.21
2023-04-03T01:38:10.037Z,71.14
2023-04-03T01:40:34.114Z,70.58
2023-04-03T01:42:58.034Z,70.69
2023-04-03T01:45:21.949Z,71.14
2023-04-03T01:47:45.863Z,70.95
2023-04-03T01:50:11.910Z,70.88
2023-04-03T01:52:35.654Z,69.81
2023-04-03T01:54:59.436Z,69.35
2023-04-03T01:57:23.203Z,70.92
2023-04-03T01:59:47.076Z,69.59
2023-04-03T02:02:10.818Z,71.65
2023-04-03T02:04:34.629Z,71.97
2023-04-03T02:06:59.829Z,70.64
2023-04-03T02:09:23.557Z,69.82
2023-04-03T02:11:49.303Z,70.64
2023-04-03T02:14:13.098Z,71.12
2023-04-03T02:16:36.976Z,71.34
2023-04-03T02:19:00.920Z,71.58
2023-04-03T02:21:24.878Z,73.53
2023-04-03T02:23:50.121Z,74.27
2023-04-03T02:26:17.137Z,73.28
2023-04-03T02:28:43.182Z,73.16
2023-04-03T02:31:08.544Z,75.15
2023-04-03T02:33:33.579Z,75.24
2023-04-03T02:35:58.223Z,74.68
2023-04-03T02:38:22.181Z,73.71
2023-04-03T02:40:47.665Z,75.32
2023-04-03T02:43:11.722Z,74.40
2023-04-03T02:45:35.606Z,73.12
2023-04-03T02:47:59.849Z,73.72
2023-04-03T02:50:23.588Z,74.88
2023-04-03T02:52:47.345Z,74.69
2023-04-03T02:55:11.289Z,76.26
2023-04-03T02:57:36.745Z,75.79
2023-04-03T03:00:00.737Z,76.10
2023-04-03T03:02:24.585Z,76.06
2023-04-03T03:04:48.401Z,76.01
2023-04-03T03:07:12.220Z,76.10
2023-04-03T03:09:36.077Z,76.08
2023-04-03T03:11:59.808Z,75.78
2023-04-03T03:14:25.045Z,75.93
2023-04-03T03:16:48.784Z,76.73
2023-04-03T03:19:12.729Z,76.26
2023-04-03T03:21:36.838Z,75.37
2023-04-03T03:24:00.678Z,74.22
2023-04-03T03:26:24.841Z,74.22
2023-04-03T03:28:48.543Z,75.69
2023-04-03T03:31:14.553Z,74.06
2023-04-03T03:33:38.372Z,75.61
2023-04-03T03:36:02.461Z,74.44
2023-04-03T03:38:26.947Z,75.49
2023-04-03T03:40:52.406Z,75.78
2023-04-03T03:43:18.025Z,74.94
2023-04-03T03:45:42.733Z,74.74
2023-04-03T03:48:08.185Z,74.05
2023-04-03T03:50:32.498Z,74.22
2023-04-03T03:52:56.488Z,74.57
2023-04-03T03:55:20.349Z,74.94
2023-04-03T03:57:48.682Z,76.05
2023-04-03T04:00:13.941Z,75.38
2023-04-03T04:02:45.347Z,76.17
2023-04-03T04:05:14.318Z,76.82
2023-04-03T04:07:38.410Z,77.54
2023-04-03T04:10:02.225Z,77.14
2023-04-03T04:12:26.191Z,77.74
2023-04-03T04:14:50.055Z,76.99
2023-04-03T04:17:13.929Z,76.72
2023-04-03T04:19:37.719Z,77.44
2023-04-03T04:22:02.892Z,77.16
2023-04-03T04:24:28.244Z,76.92
2023-04-03T04:26:53.551Z,76.16
2023-04-03T04:29:18.738Z,75.90
2023-04-03T04:31:45.530Z,76.40
2023-04-03T04:34:09.635Z,75.37
2023-04-03T04:36:34.633Z,77.44
2023-04-03T04:39:00.012Z,77.40
2023-04-03T04:41:25.130Z,77.02
2023-04-03T04:43:49.734Z,76.70
2023-04-03T04:46:14.000Z,77.09
2023-04-03T04:48:43.313Z,78.31
2023-04-03T04:51:08.058Z,77.77
2023-04-03T04:53:33.943Z,76.33
2023-04-03T04:55:59.708Z,77.96
2023-04-03T04:58:23.547Z,76.37
2023-04-03T05:00:48.197Z,75.82
2023-04-03T05:03:12.217Z,76.84
2023-04-03T05:05:36.702Z,76.28
2023-04-03T05:08:00.721Z,75.85
2023-04-03T05:10:24.715Z,76.24
2023-04-03T05:12:50.891Z,78.04
2023-04-03T05:15:14.750Z,77.96
2023-04-03T05:17:38.891Z,77.86
2023-04-03T05:20:05.603Z,77.42
2023-04-03T05:22:29.421Z,76.49
2023-04-03T05:24:57.937Z,78.53
2023-04-03T05:27:22.399Z,78.42
2023-04-03T05:29:51.587Z,77.88
2023-04-03T05:32:18.519Z,78.87
2023-04-03T05:34:46.022Z,79.85
2023-04-03T05:37:10.064Z,78.98
2023-04-03T05:39:34.209Z,79.88
2023-04-03T05:41:59.636Z,80.25
2023-04-03T05:44:23.588Z,79.38
2023-04-03T05:46:49.962Z,79.36
2023-04-03T05:49:13.925Z,79.68
2023-04-03T05:51:40.004Z,79.35
2023-04-03T05:54:16.824Z,78.82
2023-04-03T05:56:41.176Z,78.53
2023-04-03T05:59:05.055Z,78.64
2023-04-03T06:01:29.093Z,77.99
2023-04-03T06:03:55.498Z,77.77
2023-04-03T06:06:19.437Z,77.20
2023-04-03T06:08:44.676Z,75.95
2023-04-03T06:11:09.802Z,73.51
2023-04-03T06:13:34.477Z,71.58
2023-04-03T06:15:59.614Z,69.00
2023-04-03T06:18:23.252Z,68.47
2023-04-03T06:20:48.625Z,66.06
2023-04-03T06:23:13.036Z,65.41
2023-04-03T06:25:36.838Z,62.00
2023-04-03T06:28:01.084Z,60.43
2023-04-03T06:30:24.910Z,60.08
2023-04-03T06:32:48.547Z,60.32
2023-04-03T06:35:12.433Z,56.62
2023-04-03T06:37:37.463Z,56.24
2023-04-03T06:40:02.363Z,55.71
2023-04-03T06:42:26.392Z,53.27
2023-04-03T06:45:02.864Z,53.35
2023-04-03T06:47:26.632Z,51.94
2023-04-03T06:49:50.660Z,51.33
2023-04-03T06:52:14.366Z,50.43
2023-04-03T06:54:39.409Z,49.96
2023-04-03T06:57:03.134Z,48.61
2023-04-03T06:59:27.253Z,48.78
2023-04-03T07:01:51.434Z,50.05
2023-04-03T07:04:15.573Z,45.75
2023-04-03T07:06:39.312Z,46.03
2023-04-03T07:09:03.820Z,45.52
2023-04-03T07:11:30.436Z,45.87
2023-04-03T07:13:54.323Z,46.66
2023-04-03T07:16:18.358Z,44.93
2023-04-03T07:18:42.474Z,46.00
2023-04-03T07:21:07.167Z,45.51
2023-04-03T07:23:30.865Z,47.75
2023-04-03T07:25:55.261Z,46.39
2023-04-03T07:28:21.870Z,46.52
2023-04-03T07:30:47.332Z,47.54
2023-04-03T07:33:11.048Z,47.93
2023-04-03T07:35:34.793Z,49.03
2023-04-03T07:37:58.487Z,49.47
2023-04-03T07:40:22.448Z,49.38
2023-04-03T07:42:46.349Z,49.02
2023-04-03T07:45:13.017Z,48.92
2023-04-03T07:47:37.195Z,49.83
2023-04-03T07:50:00.924Z,49.52
2023-04-03T07:52:24.607Z,48.74
2023-04-03T07:54:48.397Z,50.33
2023-04-03T07:57:12.711Z,49.13
2023-04-03T07:59:36.514Z,49.27
2023-04-03T08:02:01.555Z,49.37
2023-04-03T08:04:26.140Z,50.36
2023-04-03T08:06:49.814Z,49.98
2023-04-03T08:09:13.463Z,51.02
2023-04-03T08:11:37.572Z,49.90
2023-04-03T08:14:01.240Z,50.83
2023-04-03T08:16:27.944Z,50.37
2023-04-03T08:18:53.055Z,50.25
2023-04-03T08:21:16.988Z,49.72
2023-04-03T08:23:42.106Z,50.01
2023-04-03T08:26:11.493Z,50.25
2023-04-03T08:28:35.257Z,50.32
2023-04-03T08:30:59.331Z,50.38
2023-04-03T08:33:23.132Z,50.61
2023-04-03T08:35:48.190Z,49.86
2023-04-03T08:38:12.655Z,49.30
2023-04-03T08:40:36.562Z,48.02
2023-04-03T08:43:17.702Z,49.54
2023-04-03T08:45:51.322Z,49.86
2023-04-03T08:48:18.394Z,49.47
2023-04-03T08:50:46.188Z,48.59
2023-04-03T08:53:17.893Z,47.87
2023-04-03T08:55:46.177Z,46.61
2023-04-03T08:58:14.962Z,47.91
2023-04-03T09:00:47.625Z,46.17
2023-04-03T09:03:16.167Z,46.47
2023-04-03T09:05:47.548Z,48.00
2023-04-03T09:08:24.612Z,46.43
2023-04-03T09:10:48.492Z,46.70
2023-04-03T09:13:26.652Z,47.87
2023-04-03T09:15:50.509Z,47.85
2023-04-03T09:18:21.264Z,48.05
2023-04-03T09:20:54.674Z,46.81
2023-04-03T09:23:27.491Z,45.07
2023-04-03T09:25:55.878Z,46.02
2023-04-03T09:28:19.604Z,44.67
2023-04-03T09:30:43.792Z,44.91
2023-04-03T09:33:08.655Z,44.90
2023-04-03T09:35:44.965Z,42.13
2023-04-03T09:38:22.922Z,41.58
2023-04-03T09:40:48.516Z,40.14
2023-04-03T09:43:31.550Z,40.48
2023-04-03T09:45:56.749Z,40.49
2023-04-03T09:48:22.710Z,38.89
2023-04-03T09:51:00.461Z,40.24
2023-04-03T09:53:36.411Z,40.79
2023-04-03T09:56:01.150Z,41.27
2023-04-03T09:58:42.573Z,38.82
2023-04-03T10:01:26.379Z,40.01
2023-04-03T10:04:10.534Z,39.89
2023-04-03T10:06:37.623Z,39.85
2023-04-03T10:09:06.236Z,39.85
2023-04-03T10:11:30.141Z,38.89
2023-04-03T10:13:57.520Z,38.92
2023-04-03T10:16:28.575Z,39.98
2023-04-03T10:19:09.577Z,43.08
2023-04-03T10:21:43.948Z,40.90
2023-04-03T10:24:14.840Z,41.80
2023-04-03T10:26:48.225Z,40.44
2023-04-03T10:29:27.918Z,41.86
2023-04-03T10:32:02.020Z,40.97
2023-04-03T10:34:32.587Z,42.06
2023-04-03T10:37:04.847Z,40.69
2023-04-03T10:39:37.133Z,41.68
2023-04-03T10:42:15.957Z,40.45
2023-04-03T10:44:57.860Z,41.30
2023-04-03T10:47:24.886Z,43.54
2023-04-03T10:49:59.977Z,41.11
2023-04-03T10:52:30.922Z,38.60
2023-04-03T10:55:09.422Z,38.67
2023-04-03T10:57:33.437Z,40.96
2023-04-03T11:00:01.908Z,41.55
2023-04-03T11:02:31.386Z,40.23
2023-04-03T11:05:02.196Z,42.06
2023-04-03T11:07:29.624Z,39.92
2023-04-03T11:09:59.472Z,40.69
2023-04-03T11:12:28.481Z,38.95
2023-04-03T11:14:55.193Z,39.62
2023-04-03T11:17:31.511Z,40.41
2023-04-03T11:20:07.892Z,40.92
2023-04-03T11:22:37.616Z,41.22
2023-04-03T11:25:16.424Z,40.42
2023-04-03T11:27:46.994Z,40.81
2023-04-03T11:30:20.710Z,40.03
2023-04-03T11:33:13.038Z,41.20
2023-04-03T11:35:38.057Z,40.21
2023-04-03T11:38:04.323Z,40.39
2023-04-03T11:40:33.920Z,42.81
2023-04-03T11:43:09.246Z,40.79
2023-04-03T11:45:41.176Z,41.44
2023-04-03T11:48:21.226Z,40.54
2023-04-03T11:50:48.845Z,42.12
2023-04-03T11:53:35.497Z,40.66
2023-04-03T11:56:07.302Z,42.38
2023-04-03T11:58:33.465Z,42.14
2023-04-03T12:01:05.151Z,41.27
2023-04-03T12:04:09.844Z,42.42
2023-04-03T12:07:18.938Z,42.94
2023-04-03T12:10:32.100Z,43.25
2023-04-03T12:13:03.592Z,42.61
2023-04-03T12:16:01.060Z,44.03
2023-04-03T12:19:01.260Z,41.86
2023-04-03T12:21:27.333Z,43.66
2023-04-03T12:24:16.210Z,43.58
2023-04-03T12:26:49.107Z,43.08
2023-04-03T12:29:23.153Z,42.66
2023-04-03T12:32:01.257Z,43.53
2023-04-03T12:34:46.659Z,44.20
2023-04-03T12:37:23.742Z,43.23
2023-04-03T12:40:06.837Z,44.70
2023-04-03T12:43:16.063Z,43.39
2023-04-03T12:45:49.758Z,45.63
2023-04-03T12:48:19.072Z,44.49
2023-04-03T12:50:44.478Z,44.08
2023-04-03T12:53:14.968Z,44.98
2023-04-03T12:55:38.983Z,41.91
2023-04-03T12:58:18.609Z,42.12
2023-04-03T13:00:42.400Z,42.40
2023-04-03T13:03:09.501Z,44.48
2023-04-03T13:05:36.726Z,42.05
2023-04-03T13:08:04.717Z,42.84
2023-04-03T13:10:28.513Z,43.29
2023-04-03T13:12:55.383Z,43.23
2023-04-03T13:15:22.339Z,42.08
2023-04-03T13:17:46.410Z,42.43
2023-04-03T13:20:21.025Z,43.28
2023-04-03T13:22:52.453Z,43.02
2023-04-03T13:25:18.816Z,42.11
2023-04-03T13:27:45.009Z,43.39
2023-04-03T13:30:22.470Z,44.01
2023-04-03T13:32:46.675Z,44.04
2023-04-03T13:35:39.199Z,44.54
2023-04-03T13:38:08.010Z,45.04
2023-04-03T13:40:41.428Z,44.20
2023-04-03T13:43:21.565Z,44.53
2023-04-03T13:46:15.749Z,44.53
2023-04-03T13:48:42.657Z,44.77
2023-04-03T13:51:20.042Z,45.40
2023-04-03T13:53:47.511Z,44.76
2023-04-03T13:56:21.763Z,45.77
2023-04-03T13:58:58.031Z,46.00
2023-04-03T14:01:24.426Z,43.86
2023-04-03T14:03:55.394Z,44.43
2023-04-03T14:06:21.764Z,45.27
2023-04-03T14:08:46.331Z,44.67
2023-04-03T14:11:17.300Z,46.02
2023-04-03T14:13:41.094Z,46.53
2023-04-03T14:16:15.413Z,46.19
2023-04-03T14:18:40.245Z,46.21
2023-04-03T14:21:03.960Z,45.86
2023-04-03T14:23:29.170Z,45.16
2023-04-03T14:25:52.793Z,46.77
2023-04-03T14:28:21.828Z,46.71
2023-04-03T14:30:46.317Z,47.01
2023-04-03T14:33:16.350Z,46.17
2023-04-03T14:35:40.239Z,46.76
2023-04-03T14:38:03.969Z,46.34
2023-04-03T14:40:30.172Z,45.75
2023-04-03T14:42:56.315Z,47.20
2023-04-03T14:45:20.638Z,46.18
2023-04-03T14:47:49.300Z,46.48
2023-04-03T14:50:17.461Z,46.96
2023-04-03T14:52:42.187Z,46.22
2023-04-03T14:55:08.509Z,45.46
2023-04-03T14:57:33.945Z,46.68
2023-04-03T14:59:57.830Z,48.80
2023-04-03T15:02:30.897Z,46.67
2023-04-03T15:04:55.310Z,47.37
2023-04-03T15:07:19.396Z,47.98
2023-04-03T15:09:43.446Z,47.86
2023-04-03T15:12:07.427Z,48.40
2023-04-03T15:14:37.380Z,49.05
2023-04-03T15:17:18.013Z,48.61
2023-04-03T15:19:42.077Z,48.36
2023-04-03T15:22:05.780Z,48.02
2023-04-03T15:24:29.426Z,48.63
2023-04-03T15:26:53.042Z,49.43
2023-04-03T15:29:16.754Z,48.88
2023-04-03T15:31:41.795Z,48.96
2023-04-03T15:34:05.896Z,48.57
2023-04-03T15:36:34.687Z,49.52
2023-04-03T15:38:58.741Z,50.08
2023-04-03T15:41:22.357Z,51.44
2023-04-03T15:43:46.272Z,51.22
2023-04-03T15:46:10.147Z,50.63
2023-04-03T15:48:35.435Z,53.27
2023-04-03T15:50:59.400Z,51.30
2023-04-03T15:53:23.125Z,52.94
2023-04-03T15:55:46.866Z,51.95
2023-04-03T15:58:11.949Z,52.00
2023-04-03T16:00:36.025Z,52.59
2023-04-03T16:03:05.205Z,51.92
2023-04-03T16:05:30.971Z,51.78
2023-04-03T16:07:54.851Z,51.82
2023-04-03T16:10:20.803Z,52.66
2023-04-03T16:12:44.444Z,52.05
2023-04-03T16:15:09.577Z,52.51
2023-04-03T16:17:34.604Z,52.76
2023-04-03T16:19:58.374Z,51.86
2023-04-03T16:22:24.148Z,51.46
2023-04-03T16:24:47.809Z,52.35
2023-04-03T16:27:11.475Z,52.48
2023-04-03T16:29:35.210Z,52.53
2023-04-03T16:32:00.605Z,52.15
2023-04-03T16:34:24.410Z,52.74
2023-04-03T16:36:48.064Z,53.30
2023-04-03T16:39:13.262Z,53.39
2023-04-03T16:41:36.868Z,53.04
2023-04-03T16:44:00.482Z,52.87
2023-04-03T16:46:24.202Z,53.40
2023-04-03T16:48:47.940Z,53.65
2023-04-03T16:51:11.602Z,53.18
2023-04-03T16:53:35.362Z,53.24
2023-04-03T16:56:01.626Z,53.75
2023-04-03T16:58:25.241Z,53.43
2023-04-03T17:00:49.405Z,53.87
2023-04-03T17:03:13.262Z,54.01
2023-04-03T17:05:37.104Z,54.57
2023-04-03T17:08:01.742Z,54.64
2023-04-03T17:10:25.622Z,54.35
2023-04-03T17:12:50.668Z,54.52
2023-04-03T17:15:14.275Z,55.24
2023-04-03T17:17:38.645Z,54.44
2023-04-03T17:20:02.617Z,56.22
2023-04-03T17:22:26.391Z,55.42
2023-04-03T17:24:50.005Z,55.56
2023-04-03T17:27:13.961Z,56.10
2023-04-03T17:29:38.986Z,56.12
2023-04-03T17:32:02.686Z,56.06
2023-04-03T17:34:26.581Z,56.18
2023-04-03T17:36:50.599Z,56.63
2023-04-03T17:39:14.381Z,58.23
2023-04-03T17:41:38.362Z,57.35
2023-04-03T17:44:02.195Z,58.26
2023-04-03T17:46:28.268Z,58.25
2023-04-03T17:48:52.496Z,58.06
2023-04-03T17:51:20.858Z,57.79
2023-04-03T17:53:45.635Z,58.85
2023-04-03T17:56:10.601Z,58.19
2023-04-03T17:58:34.330Z,57.98
2023-04-03T18:00:58.176Z,58.82
2023-04-03T18:03:23.225Z,58.11
2023-04-03T18:05:46.971Z,57.63
2023-04-03T18:08:10.721Z,57.99
2023-04-03T18:10:35.172Z,57.37
2023-04-03T18:12:58.959Z,58.23
2023-04-03T18:15:22.755Z,59.84
2023-04-03T18:17:47.343Z,58.71
2023-04-03T18:20:15.168Z,58.84
2023-04-03T18:22:39.043Z,58.43
2023-04-03T18:25:02.808Z,59.10
2023-04-03T18:27:28.901Z,58.61
2023-04-03T18:29:57.492Z,58.60
2023-04-03T18:32:23.508Z,58.97
2023-04-03T18:34:47.185Z,58.53
2023-04-03T18:37:12.315Z,59.49
2023-04-03T18:39:36.332Z,59.58
2023-04-03T18:42:06.089Z,59.91
2023-04-03T18:44:30.069Z,59.01
2023-04-03T18:46:57.007Z,58.58
2023-04-03T18:49:21.460Z,60.14
2023-04-03T18:51:45.379Z,60.51
2023-04-03T18:54:10.453Z,60.05
2023-04-03T18:56:34.069Z,60.45
2023-04-03T18:58:57.841Z,61.33
2023-04-03T19:01:21.590Z,61.79
2023-04-03T19:03:46.034Z,61.73
2023-04-03T19:06:09.929Z,61.57
2023-04-03T19:08:33.901Z,60.98
2023-04-03T19:10:58.947Z,60.40
2023-04-03T19:13:22.681Z,61.36
2023-04-03T19:15:46.381Z,61.40
2023-04-03T19:18:10.054Z,61.80
2023-04-03T19:20:33.951Z,61.15
2023-04-03T19:22:57.591Z,61.70
2023-04-03T19:25:21.681Z,62.73
2023-04-03T19:27:47.276Z,62.77
2023-04-03T19:30:13.253Z,61.86
2023-04-03T19:32:37.266Z,62.72
2023-04-03T19:35:01.181Z,63.55
2023-04-03T19:37:25.001Z,63.72
2023-04-03T19:39:48.600Z,63.66
2023-04-03T19:42:12.324Z,63.45
2023-04-03T19:44:38.450Z,63.36
2023-04-03T19:47:03.019Z,64.07
2023-04-03T19:49:27.235Z,64.51
2023-04-03T19:51:50.947Z,64.29
2023-04-03T19:54:14.596Z,64.10
2023-04-03T19:56:38.212Z,64.55
2023-04-03T19:59:01.919Z,65.08
2023-04-03T20:01:30.065Z,64.70
2023-04-03T20:03:54.112Z,65.24
2023-04-03T20:06:18.111Z,64.79
2023-04-03T20:08:43.689Z,63.78
2023-04-03T20:11:07.770Z,64.20
2023-04-03T20:13:31.642Z,65.38
2023-04-03T20:15:56.175Z,65.48
2023-04-03T20:18:22.624Z,65.85
2023-04-03T20:20:47.057Z,66.39
2023-04-03T20:23:11.892Z,66.00
2023-04-03T20:28:02.065Z,66.88
2023-04-03T20:30:25.849Z,66.93
2023-04-03T20:32:49.993Z,66.41
2023-04-03T20:35:15.506Z,67.19
2023-04-03T20:37:40.237Z,67.46
2023-04-03T20:40:04.803Z,66.86
2023-04-03T20:42:28.591Z,68.00
2023-04-03T20:44:52.285Z,67.19
2023-04-03T20:47:16.204Z,67.40
2023-04-03T20:49:39.915Z,68.56
2023-04-03T20:52:05.486Z,69.23
2023-04-03T20:54:29.797Z,68.24
2023-04-03T20:56:53.558Z,68.30
2023-04-03T20:59:17.737Z,68.35
2023-04-03T21:01:42.406Z,68.50
2023-04-03T21:04:14.317Z,68.17
2023-04-03T21:07:33.961Z,68.74
2023-04-03T21:10:54.294Z,68.70
2023-04-03T21:14:14.384Z,69.27
2023-04-03T21:16:38.626Z,69.43
2023-04-03T21:19:13.656Z,69.81
2023-04-03T21:21:38.064Z,68.40
2023-04-03T21:24:06.419Z,69.69
2023-04-03T21:26:30.207Z,68.00
2023-04-03T21:28:54.166Z,69.12
2023-04-03T21:31:17.891Z,69.62
2023-04-03T21:33:42.404Z,70.17
2023-04-03T21:36:08.878Z,69.77
2023-04-03T21:38:32.491Z,69.61
2023-04-03T21:40:58.519Z,70.23
2023-04-03T21:43:22.657Z,70.60
2023-04-03T21:45:46.816Z,71.04
2023-04-03T21:48:13.711Z,69.43
2023-04-03T21:50:38.157Z,70.11
2023-04-03T21:53:03.225Z,69.12
2023-04-03T21:55:26.921Z,70.88
2023-04-03T21:57:53.653Z,71.52
2023-04-03T22:00:19.048Z,71.29
2023-04-03T22:02:42.807Z,70.84
2023-04-03T22:05:07.398Z,69.97
2023-04-03T22:07:31.485Z,70.86
2023-04-03T22:09:56.729Z,71.31
2023-04-03T22:12:20.625Z,70.86
2023-04-03T22:14:44.641Z,72.08
2023-04-03T22:17:08.327Z,71.55
2023-04-03T22:19:31.935Z,71.34
2023-04-03T22:21:55.665Z,71.60
2023-04-03T22:24:20.425Z,70.99
2023-04-03T22:26:45.478Z,70.04
2023-04-03T22:29:09.156Z,71.28
2023-04-03T22:31:32.884Z,70.28
2023-04-03T22:33:56.709Z,71.15
2023-04-03T22:36:20.532Z,69.63
2023-04-03T22:38:45.002Z,69.88
2023-04-03T22:41:09.304Z,69.88
2023-04-03T22:43:36.735Z,71.99
2023-04-03T22:46:02.188Z,71.47
2023-04-03T22:48:26.096Z,70.77
2023-04-03T22:50:49.776Z,71.02
2023-04-03T22:53:13.512Z,70.31
2023-04-03T22:55:37.749Z,71.82
2023-04-03T22:58:01.614Z,70.54
2023-04-03T23:00:27.931Z,70.89
2023-04-03T23:02:51.796Z,70.42
2023-04-03T23:05:15.649Z,69.63
2023-04-03T23:07:39.328Z,71.25
2023-04-03T23:10:02.951Z,71.69
2023-04-03T23:12:26.673Z,70.50
2023-04-03T23:14:50.333Z,71.26
2023-04-03T23:17:15.503Z,71.32
2023-04-03T23:19:39.118Z,71.43
2023-04-03T23:22:03.124Z,72.23
2023-04-03T23:24:26.797Z,71.09
2023-04-03T23:26:50.517Z,72.04
2023-04-03T23:29:14.167Z,71.46
2023-04-03T23:31:38.014Z,71.23
2023-04-03T23:34:03.061Z,71.60
2023-04-03T23:36:26.757Z,72.08
2023-04-03T23:38:50.409Z,71.79
2023-04-03T23:41:14.141Z,71.11
2023-04-03T23:43:38.064Z,72.64
2023-04-03T23:46:01.940Z,71.92
2023-04-03T23:48:25.607Z,72.42
2023-04-03T23:50:50.746Z,72.09
2023-04-03T23:53:14.374Z,73.25
2023-04-03T23:55:38.801Z,72.58
2023-04-03T23:58:02.734Z,71.71
